LFRV 181530Z AUTO 28011KT 240V310 9999 FEW037 BKN056 23/15 Q1017

ElémentsDécodage
LFRV Station météo située sur l'aérodrome de VANNES Meucon
181530Z émis le 18 du mois à 15h30 UTC
AUTO Bulletin édité par un automate
28011KT vent du 280°, 11 noeuds
240V310 vent de direction variable entre 240° et 310°
9999 visibilité horizontale supérieure à 10 Km
FEW037 nuages rares (1/8 à 2/8) à 3700 pieds
BKN056 nuages morcelés (5/8 à 7/8) à 5600 pieds
23/15 température 23°C, point de rosée 15°C
 soit une humidité relative de 61%
Q1017 la pression au niveau de la mer (QNH) est de 1017 hPa